메인 페이지
METAR-TAF:

METAR-TAF

공항 :

휴스턴, 텍사스, 미국

조지 부시 인터콘티넨털 공항

위도: 29-59-33N, 경도: 095-21-50W, 고도: 29m

현재 날씨관측

예보는 1 시간 2분 전, 07:53시(UTC)에 발표되었습니다.
12kt, 순간 최대 풍속 18kt
온도 19°C
습도 94%
기압 1017 hPa
시정: 14.5km
고도 800ft 상공 흐림

METAR: KIAH 210753Z 17012G18KT 9SM OVC008 19/18 A3003 RMK AO2 SLP168 T01940183

시각: 02:55 (08:55 UTC)

예보

예보는 3 시간 22분 전, 05:33시(UTC)에 발표되었습니다.
예보 대상 시간: 21일 06시부터 22일 12시까지 (UTC)
남남동10kt
시정: 9.7km
고도 800ft 상공 흐림
박무
21일 0800시부터 (UTC)
남남동10kt
시정: 8.0km
고도 800ft 상공 구름 보통
고도 1200ft 상공 흐림
박무
일시적
21일 11시부터 21일 15시까지 (UTC)
고도 800ft 상공 구름 많음
21일 1600시부터 (UTC)
12kt
시정: 10km
고도 1500ft 상공 흐림
21일 1900시부터 (UTC)
15kt, 순간 최대 풍속 25kt
시정: 10km
고도 2500ft 상공 구름 많음
고도 4000ft 상공 구름 많음
시계 내 소나기
22일 0000시부터 (UTC)
12kt
시정: 10km
고도 1500ft 상공 구름 많음
고도 2500ft 상공 흐림
시계 내 소나기
22일 0700시부터 (UTC)
서북서10kt
시정: 10km
고도 1500ft 상공 구름 보통
고도 3500ft 상공 구름 많음

TAF: KIAH 210533Z 2106/2212 15010KT 6SM BR OVC008 FM210800 16010KT 5SM BR SCT008 OVC012 TEMPO 2111/2115 BKN008 FM211600 17012KT P6SM OVC015 FM211900 17015G25KT P6SM VCSH BKN025 BKN040 FM220000 19012KT P6SM VCSH BKN015 OVC025 FM220700 29010KT P6SM SCT015 BKN035

4,000개 이상의 공항 관측 자료 및 예보 (METAR 및 TAF 보고).

지도상에서 검색 가능한 기상관측소가 노란 점과 빨간 점으로 표시되어 있습니다.

기상관측소 명을 보려면 표시 위로 마우스를 이동하세요.

날씨 관측과 예보를 보려면 클릭하세요.

지도 변경 : 확대하려면 엑스 표시가 있는 녹색 버튼, 축소하려면 빼기 표시가 있는 녹색 버튼, 다음 페이지의 지도를 보려면 녹색 화살표를 클릭하세요.


METAR-TAF: